« Back
NWS Peachtree City, Ga » Text Product » AHN Terminal Aerodrome Forecast


Printer-friendly Version
Current Version              Previous Versions:   1  2  3  4  5  6  7  8  9  

Terminal Aerodrome Forecast

543
FTUS42 KFFC 010348 AAA
TAFAHN
TAF AMD
KAHN 010348Z 0104/0124 00000KT P6SM SCT060
     FM011000 00000KT 4SM BR SCT005
     FM011500 09003KT P6SM SCT040 SCT250
     FM011900 10004KT P6SM BKN050=



USA.gov is the U.S. government's official web portal to all federal, state and local government web resources and services.